Terminal Aerodrome Forecast
Issued by NWS Twin Cities, MN

Home | Current Version | Previous Version | Graphics & Text | Print | Product List | Glossary On
Versions: 1 2 3 4 5 6 7 8 9 10 11 12 13 14 15 16 17 18 19 20 21 22 23 24 25 26 27 28 29 30 31
000
FTUS43 KMPX 261519 AAA
TAFMSP
TAF AMD
KMSP 261519Z 2615/2718 24008KT P6SM FEW250
     FM270400 16005KT P6SM BKN050 OVC200 PROB30 2706/2712 -TSRA
      BKN020CB
     FM271500 13007KT P6SM VCSH BKN040=

USA.gov is the U.S. government's official web portal to all federal, state and local government web resources and services.